sensor_id;sensor_type;location;lat;lon;timestamp;P1;durP1;ratioP1;P2;durP2;ratioP2
78750;SDS011;68070;50.954;11.060;2023-05-10T00:01:35;3.20;;;2.60;;
78750;SDS011;68070;50.954;11.060;2023-05-10T00:04:20;6.50;;;2.50;;
78750;SDS011;68070;50.954;11.060;2023-05-10T00:07:05;3.00;;;2.10;;
78750;SDS011;68070;50.954;11.060;2023-05-10T00:09:49;3.80;;;2.70;;
78750;SDS011;68070;50.954;11.060;2023-05-10T00:12:34;4.70;;;2.70;;
78750;SDS011;68070;50.954;11.060;2023-05-10T00:15:18;4.90;;;3.10;;
78750;SDS011;68070;50.954;11.060;2023-05-10T00:18:03;4.40;;;2.70;;
78750;SDS011;68070;50.954;11.060;2023-05-10T00:20:50;4.00;;;2.50;;
78750;SDS011;68070;50.954;11.060;2023-05-10T00:23:35;3.50;;;2.50;;
78750;SDS011;68070;50.954;11.060;2023-05-10T00:26:19;3.60;;;2.40;;
78750;SDS011;68070;50.954;11.060;2023-05-10T00:29:04;5.20;;;4.60;;
78750;SDS011;68070;50.954;11.060;2023-05-10T00:31:49;4.20;;;2.90;;
78750;SDS011;68070;50.954;11.060;2023-05-10T00:34:33;4.10;;;2.70;;
78750;SDS011;68070;50.954;11.060;2023-05-10T00:37:17;3.40;;;2.20;;
78750;SDS011;68070;50.954;11.060;2023-05-10T00:40:02;5.20;;;2.90;;
78750;SDS011;68070;50.954;11.060;2023-05-10T00:42:47;3.30;;;2.50;;
78750;SDS011;68070;50.954;11.060;2023-05-10T00:45:32;2.90;;;2.10;;
78750;SDS011;68070;50.954;11.060;2023-05-10T00:48:18;4.20;;;2.60;;
78750;SDS011;68070;50.954;11.060;2023-05-10T00:51:03;3.40;;;2.30;;
78750;SDS011;68070;50.954;11.060;2023-05-10T00:53:47;4.60;;;2.80;;
78750;SDS011;68070;50.954;11.060;2023-05-10T00:56:33;4.50;;;2.80;;
78750;SDS011;68070;50.954;11.060;2023-05-10T00:59:18;2.60;;;2.00;;
78750;SDS011;68070;50.954;11.060;2023-05-10T01:02:03;4.70;;;2.60;;
78750;SDS011;68070;50.954;11.060;2023-05-10T01:04:48;3.80;;;2.60;;
78750;SDS011;68070;50.954;11.060;2023-05-10T01:07:33;4.30;;;2.80;;
78750;SDS011;68070;50.954;11.060;2023-05-10T01:10:18;4.60;;;2.80;;
78750;SDS011;68070;50.954;11.060;2023-05-10T01:13:02;3.70;;;2.90;;
78750;SDS011;68070;50.954;11.060;2023-05-10T01:15:47;4.80;;;2.70;;
78750;SDS011;68070;50.954;11.060;2023-05-10T01:18:33;4.40;;;2.80;;
78750;SDS011;68070;50.954;11.060;2023-05-10T01:33:25;4.10;;;2.80;;
78750;SDS011;68070;50.954;11.060;2023-05-10T01:36:26;3.60;;;2.70;;
78750;SDS011;68070;50.954;11.060;2023-05-10T01:42:25;5.10;;;2.70;;
78750;SDS011;68070;50.954;11.060;2023-05-10T01:48:15;5.60;;;2.20;;
78750;SDS011;68070;50.954;11.060;2023-05-10T01:51:02;3.60;;;2.40;;
78750;SDS011;68070;50.954;11.060;2023-05-10T01:53:51;12.70;;;4.40;;
78750;SDS011;68070;50.954;11.060;2023-05-10T01:56:40;3.20;;;2.30;;
78750;SDS011;68070;50.954;11.060;2023-05-10T01:59:29;2.40;;;2.20;;
78750;SDS011;68070;50.954;11.060;2023-05-10T02:02:20;3.60;;;2.80;;
78750;SDS011;68070;50.954;11.060;2023-05-10T02:05:08;4.70;;;2.90;;
78750;SDS011;68070;50.954;11.060;2023-05-10T02:07:56;3.30;;;2.60;;
78750;SDS011;68070;50.954;11.060;2023-05-10T02:10:43;4.80;;;2.50;;
78750;SDS011;68070;50.954;11.060;2023-05-10T02:13:30;4.10;;;2.40;;
78750;SDS011;68070;50.954;11.060;2023-05-10T02:16:19;5.50;;;2.50;;
78750;SDS011;68070;50.954;11.060;2023-05-10T02:19:08;3.60;;;2.50;;
78750;SDS011;68070;50.954;11.060;2023-05-10T02:21:55;3.40;;;2.80;;
78750;SDS011;68070;50.954;11.060;2023-05-10T02:24:41;3.60;;;2.70;;
78750;SDS011;68070;50.954;11.060;2023-05-10T02:27:27;3.70;;;2.60;;
78750;SDS011;68070;50.954;11.060;2023-05-10T02:30:13;3.50;;;2.60;;
78750;SDS011;68070;50.954;11.060;2023-05-10T02:32:59;3.80;;;2.80;;
78750;SDS011;68070;50.954;11.060;2023-05-10T02:35:46;5.30;;;2.90;;
78750;SDS011;68070;50.954;11.060;2023-05-10T02:38:32;3.70;;;2.70;;
78750;SDS011;68070;50.954;11.060;2023-05-10T02:41:19;4.00;;;2.80;;
78750;SDS011;68070;50.954;11.060;2023-05-10T02:44:07;4.90;;;3.00;;
78750;SDS011;68070;50.954;11.060;2023-05-10T02:46:53;6.20;;;2.90;;
78750;SDS011;68070;50.954;11.060;2023-05-10T02:49:40;5.20;;;3.20;;
78750;SDS011;68070;50.954;11.060;2023-05-10T02:52:27;4.10;;;2.90;;
78750;SDS011;68070;50.954;11.060;2023-05-10T02:55:16;3.40;;;2.30;;
78750;SDS011;68070;50.954;11.060;2023-05-10T02:58:03;3.70;;;2.80;;
78750;SDS011;68070;50.954;11.060;2023-05-10T03:00:48;3.70;;;2.90;;
78750;SDS011;68070;50.954;11.060;2023-05-10T03:03:33;7.10;;;3.10;;
78750;SDS011;68070;50.954;11.060;2023-05-10T03:06:17;4.60;;;2.90;;
78750;SDS011;68070;50.954;11.060;2023-05-10T03:09:02;4.70;;;3.20;;
78750;SDS011;68070;50.954;11.060;2023-05-10T03:11:50;4.00;;;2.60;;
78750;SDS011;68070;50.954;11.060;2023-05-10T03:14:49;4.30;;;2.70;;
78750;SDS011;68070;50.954;11.060;2023-05-10T03:17:55;3.50;;;2.40;;
78750;SDS011;68070;50.954;11.060;2023-05-10T03:20:49;3.60;;;2.50;;
78750;SDS011;68070;50.954;11.060;2023-05-10T03:23:41;4.30;;;2.60;;
78750;SDS011;68070;50.954;11.060;2023-05-10T03:26:29;4.10;;;3.20;;
78750;SDS011;68070;50.954;11.060;2023-05-10T03:29:23;4.10;;;2.90;;
78750;SDS011;68070;50.954;11.060;2023-05-10T03:32:10;4.40;;;3.30;;
78750;SDS011;68070;50.954;11.060;2023-05-10T03:34:55;5.00;;;2.70;;
78750;SDS011;68070;50.954;11.060;2023-05-10T03:37:42;3.70;;;2.90;;
78750;SDS011;68070;50.954;11.060;2023-05-10T03:40:26;3.90;;;2.60;;
78750;SDS011;68070;50.954;11.060;2023-05-10T03:43:13;5.00;;;3.20;;
78750;SDS011;68070;50.954;11.060;2023-05-10T03:45:57;5.20;;;4.00;;
78750;SDS011;68070;50.954;11.060;2023-05-10T03:48:41;4.20;;;3.00;;
78750;SDS011;68070;50.954;11.060;2023-05-10T03:51:26;4.60;;;3.60;;
78750;SDS011;68070;50.954;11.060;2023-05-10T03:54:12;3.80;;;2.90;;
78750;SDS011;68070;50.954;11.060;2023-05-10T03:56:56;5.80;;;3.50;;
78750;SDS011;68070;50.954;11.060;2023-05-10T03:59:41;4.10;;;3.20;;
78750;SDS011;68070;50.954;11.060;2023-05-10T04:02:26;4.30;;;3.20;;
78750;SDS011;68070;50.954;11.060;2023-05-10T04:05:10;5.40;;;3.90;;
78750;SDS011;68070;50.954;11.060;2023-05-10T04:07:55;4.50;;;2.80;;
78750;SDS011;68070;50.954;11.060;2023-05-10T04:10:39;7.60;;;3.10;;
78750;SDS011;68070;50.954;11.060;2023-05-10T04:13:23;6.20;;;3.90;;
78750;SDS011;68070;50.954;11.060;2023-05-10T04:16:08;4.60;;;3.40;;
78750;SDS011;68070;50.954;11.060;2023-05-10T04:18:52;4.50;;;3.40;;
78750;SDS011;68070;50.954;11.060;2023-05-10T04:21:37;4.60;;;3.40;;
78750;SDS011;68070;50.954;11.060;2023-05-10T04:24:21;7.30;;;5.10;;
78750;SDS011;68070;50.954;11.060;2023-05-10T04:27:06;6.70;;;3.70;;
78750;SDS011;68070;50.954;11.060;2023-05-10T04:29:50;5.00;;;3.70;;
78750;SDS011;68070;50.954;11.060;2023-05-10T04:32:35;4.30;;;3.10;;
78750;SDS011;68070;50.954;11.060;2023-05-10T04:35:19;5.60;;;3.70;;
78750;SDS011;68070;50.954;11.060;2023-05-10T04:38:03;3.80;;;3.30;;
78750;SDS011;68070;50.954;11.060;2023-05-10T04:40:48;6.20;;;4.00;;
78750;SDS011;68070;50.954;11.060;2023-05-10T04:43:33;4.30;;;3.60;;
78750;SDS011;68070;50.954;11.060;2023-05-10T04:46:18;4.40;;;3.60;;
78750;SDS011;68070;50.954;11.060;2023-05-10T04:49:02;4.00;;;3.00;;
78750;SDS011;68070;50.954;11.060;2023-05-10T04:51:47;4.70;;;2.80;;
78750;SDS011;68070;50.954;11.060;2023-05-10T04:54:31;4.10;;;3.50;;
78750;SDS011;68070;50.954;11.060;2023-05-10T04:57:16;5.20;;;4.00;;
78750;SDS011;68070;50.954;11.060;2023-05-10T05:00:00;5.00;;;3.70;;
78750;SDS011;68070;50.954;11.060;2023-05-10T05:02:45;4.90;;;4.30;;
78750;SDS011;68070;50.954;11.060;2023-05-10T05:05:29;6.00;;;4.30;;
78750;SDS011;68070;50.954;11.060;2023-05-10T05:08:14;3.90;;;3.00;;
78750;SDS011;68070;50.954;11.060;2023-05-10T05:10:58;4.80;;;4.20;;
78750;SDS011;68070;50.954;11.060;2023-05-10T05:13:43;4.20;;;3.40;;
78750;SDS011;68070;50.954;11.060;2023-05-10T05:16:30;4.60;;;3.70;;
78750;SDS011;68070;50.954;11.060;2023-05-10T05:19:14;5.00;;;3.10;;
78750;SDS011;68070;50.954;11.060;2023-05-10T05:21:59;5.10;;;4.00;;
78750;SDS011;68070;50.954;11.060;2023-05-10T05:24:43;4.90;;;3.80;;
78750;SDS011;68070;50.954;11.060;2023-05-10T05:27:29;2.90;;;1.90;;
78750;SDS011;68070;50.954;11.060;2023-05-10T05:30:13;4.90;;;3.00;;
78750;SDS011;68070;50.954;11.060;2023-05-10T05:32:57;7.30;;;4.00;;
78750;SDS011;68070;50.954;11.060;2023-05-10T05:35:41;3.80;;;3.00;;
78750;SDS011;68070;50.954;11.060;2023-05-10T05:38:31;3.70;;;2.70;;
78750;SDS011;68070;50.954;11.060;2023-05-10T05:41:15;4.90;;;3.10;;
78750;SDS011;68070;50.954;11.060;2023-05-10T05:44:00;7.00;;;3.40;;
78750;SDS011;68070;50.954;11.060;2023-05-10T05:46:44;4.20;;;3.20;;
78750;SDS011;68070;50.954;11.060;2023-05-10T05:49:28;3.40;;;2.90;;
78750;SDS011;68070;50.954;11.060;2023-05-10T05:52:13;4.10;;;2.80;;
78750;SDS011;68070;50.954;11.060;2023-05-10T05:54:57;3.30;;;2.60;;
78750;SDS011;68070;50.954;11.060;2023-05-10T05:57:42;4.80;;;2.90;;
78750;SDS011;68070;50.954;11.060;2023-05-10T06:00:27;4.80;;;3.00;;
78750;SDS011;68070;50.954;11.060;2023-05-10T06:03:11;5.70;;;3.00;;
78750;SDS011;68070;50.954;11.060;2023-05-10T06:05:56;6.20;;;2.90;;
78750;SDS011;68070;50.954;11.060;2023-05-10T06:08:40;3.20;;;2.30;;
78750;SDS011;68070;50.954;11.060;2023-05-10T06:11:25;3.30;;;2.80;;
78750;SDS011;68070;50.954;11.060;2023-05-10T06:14:10;4.30;;;2.70;;
78750;SDS011;68070;50.954;11.060;2023-05-10T06:16:54;5.30;;;3.10;;
78750;SDS011;68070;50.954;11.060;2023-05-10T06:19:38;3.20;;;2.70;;
78750;SDS011;68070;50.954;11.060;2023-05-10T06:22:23;4.00;;;2.40;;
78750;SDS011;68070;50.954;11.060;2023-05-10T06:25:08;4.00;;;2.90;;
78750;SDS011;68070;50.954;11.060;2023-05-10T06:27:53;3.10;;;2.20;;
78750;SDS011;68070;50.954;11.060;2023-05-10T06:30:41;3.40;;;2.70;;
78750;SDS011;68070;50.954;11.060;2023-05-10T06:33:25;3.60;;;2.40;;
78750;SDS011;68070;50.954;11.060;2023-05-10T06:36:09;2.50;;;1.80;;
78750;SDS011;68070;50.954;11.060;2023-05-10T06:38:54;5.50;;;2.60;;
78750;SDS011;68070;50.954;11.060;2023-05-10T06:41:38;4.50;;;2.50;;
78750;SDS011;68070;50.954;11.060;2023-05-10T06:44:22;4.80;;;2.50;;
78750;SDS011;68070;50.954;11.060;2023-05-10T06:47:07;3.50;;;1.80;;
78750;SDS011;68070;50.954;11.060;2023-05-10T06:49:51;2.30;;;1.70;;
78750;SDS011;68070;50.954;11.060;2023-05-10T06:52:36;2.80;;;1.70;;
78750;SDS011;68070;50.954;11.060;2023-05-10T06:55:20;1.70;;;1.40;;
78750;SDS011;68070;50.954;11.060;2023-05-10T06:58:05;1.90;;;1.60;;
78750;SDS011;68070;50.954;11.060;2023-05-10T07:00:50;4.00;;;1.70;;
78750;SDS011;68070;50.954;11.060;2023-05-10T07:03:34;2.30;;;1.70;;
78750;SDS011;68070;50.954;11.060;2023-05-10T07:06:19;2.40;;;1.60;;
78750;SDS011;68070;50.954;11.060;2023-05-10T07:09:04;2.20;;;1.20;;
78750;SDS011;68070;50.954;11.060;2023-05-10T07:11:48;1.10;;;1.00;;
78750;SDS011;68070;50.954;11.060;2023-05-10T07:14:33;1.80;;;1.10;;
78750;SDS011;68070;50.954;11.060;2023-05-10T07:17:17;3.50;;;1.50;;
78750;SDS011;68070;50.954;11.060;2023-05-10T07:20:02;3.80;;;1.30;;
78750;SDS011;68070;50.954;11.060;2023-05-10T07:22:48;1.50;;;1.20;;
78750;SDS011;68070;50.954;11.060;2023-05-10T07:25:32;1.70;;;1.30;;
78750;SDS011;68070;50.954;11.060;2023-05-10T07:28:16;1.70;;;1.20;;
78750;SDS011;68070;50.954;11.060;2023-05-10T07:31:00;1.90;;;1.20;;
78750;SDS011;68070;50.954;11.060;2023-05-10T07:33:45;1.30;;;1.00;;
78750;SDS011;68070;50.954;11.060;2023-05-10T07:36:30;1.30;;;1.00;;
78750;SDS011;68070;50.954;11.060;2023-05-10T07:39:15;1.30;;;1.00;;
78750;SDS011;68070;50.954;11.060;2023-05-10T16:54:43;0.70;;;0.40;;
78750;SDS011;68070;50.954;11.060;2023-05-10T16:57:28;0.60;;;0.60;;
78750;SDS011;68070;50.954;11.060;2023-05-10T17:00:12;0.70;;;0.60;;
78750;SDS011;68070;50.954;11.060;2023-05-10T17:02:57;0.40;;;0.40;;
78750;SDS011;68070;50.954;11.060;2023-05-10T17:05:41;0.70;;;0.50;;
78750;SDS011;68070;50.954;11.060;2023-05-10T17:08:26;0.50;;;0.30;;
78750;SDS011;68070;50.954;11.060;2023-05-10T17:11:10;0.30;;;0.30;;
78750;SDS011;68070;50.954;11.060;2023-05-10T17:13:55;0.40;;;0.20;;
78750;SDS011;68070;50.954;11.060;2023-05-10T17:16:40;1.00;;;0.70;;
78750;SDS011;68070;50.954;11.060;2023-05-10T17:19:25;0.60;;;0.40;;
78750;SDS011;68070;50.954;11.060;2023-05-10T17:22:11;0.90;;;0.70;;
78750;SDS011;68070;50.954;11.060;2023-05-10T17:24:56;1.20;;;0.50;;
78750;SDS011;68070;50.954;11.060;2023-05-10T17:27:40;0.60;;;0.60;;
78750;SDS011;68070;50.954;11.060;2023-05-10T17:30:25;0.70;;;0.70;;
78750;SDS011;68070;50.954;11.060;2023-05-10T17:33:11;1.00;;;0.60;;
78750;SDS011;68070;50.954;11.060;2023-05-10T17:35:55;0.80;;;0.70;;
78750;SDS011;68070;50.954;11.060;2023-05-10T17:38:40;0.80;;;0.60;;
78750;SDS011;68070;50.954;11.060;2023-05-10T17:41:25;1.40;;;0.60;;
78750;SDS011;68070;50.954;11.060;2023-05-10T17:44:10;0.70;;;0.60;;
78750;SDS011;68070;50.954;11.060;2023-05-10T17:46:55;0.80;;;0.70;;
78750;SDS011;68070;50.954;11.060;2023-05-10T17:49:40;4.50;;;2.80;;
78750;SDS011;68070;50.954;11.060;2023-05-10T17:52:24;3.20;;;2.30;;
78750;SDS011;68070;50.954;11.060;2023-05-10T17:55:09;4.10;;;2.90;;
78750;SDS011;68070;50.954;11.060;2023-05-10T17:57:54;2.30;;;1.20;;
78750;SDS011;68070;50.954;11.060;2023-05-10T18:00:41;0.60;;;0.50;;
78750;SDS011;68070;50.954;11.060;2023-05-10T18:03:26;0.60;;;0.60;;
78750;SDS011;68070;50.954;11.060;2023-05-10T18:06:10;0.70;;;0.70;;
78750;SDS011;68070;50.954;11.060;2023-05-10T18:08:55;0.70;;;0.50;;
78750;SDS011;68070;50.954;11.060;2023-05-10T18:11:39;0.70;;;0.60;;
78750;SDS011;68070;50.954;11.060;2023-05-10T18:14:24;0.80;;;0.60;;
78750;SDS011;68070;50.954;11.060;2023-05-10T18:17:11;1.20;;;0.90;;
78750;SDS011;68070;50.954;11.060;2023-05-10T18:19:56;0.60;;;0.60;;
78750;SDS011;68070;50.954;11.060;2023-05-10T18:22:40;0.70;;;0.70;;
78750;SDS011;68070;50.954;11.060;2023-05-10T18:25:24;1.10;;;0.80;;
78750;SDS011;68070;50.954;11.060;2023-05-10T18:28:09;0.90;;;0.80;;
78750;SDS011;68070;50.954;11.060;2023-05-10T18:30:53;2.10;;;0.80;;
78750;SDS011;68070;50.954;11.060;2023-05-10T18:33:38;0.80;;;0.70;;
78750;SDS011;68070;50.954;11.060;2023-05-10T18:36:23;1.90;;;1.20;;
78750;SDS011;68070;50.954;11.060;2023-05-10T18:39:07;0.70;;;0.70;;
78750;SDS011;68070;50.954;11.060;2023-05-10T18:41:51;2.70;;;1.30;;
78750;SDS011;68070;50.954;11.060;2023-05-10T18:44:36;2.30;;;1.50;;
78750;SDS011;68070;50.954;11.060;2023-05-10T18:47:20;2.20;;;1.40;;
78750;SDS011;68070;50.954;11.060;2023-05-10T18:50:04;1.80;;;1.20;;
78750;SDS011;68070;50.954;11.060;2023-05-10T18:52:49;2.00;;;1.50;;
78750;SDS011;68070;50.954;11.060;2023-05-10T18:55:34;2.40;;;1.50;;
78750;SDS011;68070;50.954;11.060;2023-05-10T18:58:18;2.10;;;1.50;;
78750;SDS011;68070;50.954;11.060;2023-05-10T19:01:03;2.90;;;1.60;;
78750;SDS011;68070;50.954;11.060;2023-05-10T19:03:48;2.90;;;1.70;;
78750;SDS011;68070;50.954;11.060;2023-05-10T19:06:33;2.50;;;1.60;;
78750;SDS011;68070;50.954;11.060;2023-05-10T19:09:18;2.70;;;1.60;;
78750;SDS011;68070;50.954;11.060;2023-05-10T19:12:03;2.60;;;1.80;;
78750;SDS011;68070;50.954;11.060;2023-05-10T19:14:47;7.40;;;4.20;;
78750;SDS011;68070;50.954;11.060;2023-05-10T19:17:32;7.90;;;4.60;;
78750;SDS011;68070;50.954;11.060;2023-05-10T19:20:16;6.00;;;3.70;;
78750;SDS011;68070;50.954;11.060;2023-05-10T19:23:01;4.90;;;2.70;;
78750;SDS011;68070;50.954;11.060;2023-05-10T19:25:45;6.50;;;3.70;;
78750;SDS011;68070;50.954;11.060;2023-05-10T19:28:30;8.90;;;5.20;;
78750;SDS011;68070;50.954;11.060;2023-05-10T19:31:15;8.10;;;5.30;;
78750;SDS011;68070;50.954;11.060;2023-05-10T19:33:59;7.80;;;4.90;;
78750;SDS011;68070;50.954;11.060;2023-05-10T19:36:44;5.90;;;3.30;;
78750;SDS011;68070;50.954;11.060;2023-05-10T19:39:29;3.00;;;2.30;;
78750;SDS011;68070;50.954;11.060;2023-05-10T19:42:16;3.90;;;2.20;;
78750;SDS011;68070;50.954;11.060;2023-05-10T19:45:00;2.60;;;1.80;;
78750;SDS011;68070;50.954;11.060;2023-05-10T19:47:44;3.30;;;2.10;;
78750;SDS011;68070;50.954;11.060;2023-05-10T19:50:29;3.00;;;2.30;;
78750;SDS011;68070;50.954;11.060;2023-05-10T19:53:13;2.40;;;1.80;;
78750;SDS011;68070;50.954;11.060;2023-05-10T19:56:01;3.10;;;2.00;;
78750;SDS011;68070;50.954;11.060;2023-05-10T19:58:47;2.60;;;1.80;;
78750;SDS011;68070;50.954;11.060;2023-05-10T20:01:31;2.70;;;1.80;;
78750;SDS011;68070;50.954;11.060;2023-05-10T20:04:16;2.50;;;1.50;;
78750;SDS011;68070;50.954;11.060;2023-05-10T20:07:01;3.00;;;1.90;;
78750;SDS011;68070;50.954;11.060;2023-05-10T20:09:45;3.00;;;2.30;;
78750;SDS011;68070;50.954;11.060;2023-05-10T20:12:30;3.70;;;2.40;;
78750;SDS011;68070;50.954;11.060;2023-05-10T20:15:14;4.60;;;2.90;;
78750;SDS011;68070;50.954;11.060;2023-05-10T20:17:58;3.10;;;2.20;;
78750;SDS011;68070;50.954;11.060;2023-05-10T20:20:43;3.00;;;2.10;;
78750;SDS011;68070;50.954;11.060;2023-05-10T20:23:27;3.60;;;2.20;;
78750;SDS011;68070;50.954;11.060;2023-05-10T20:26:12;2.50;;;1.50;;
78750;SDS011;68070;50.954;11.060;2023-05-10T20:28:56;3.70;;;1.70;;
78750;SDS011;68070;50.954;11.060;2023-05-10T20:31:41;3.40;;;1.80;;
78750;SDS011;68070;50.954;11.060;2023-05-10T20:34:25;2.60;;;1.90;;
78750;SDS011;68070;50.954;11.060;2023-05-10T20:37:10;3.90;;;2.70;;
78750;SDS011;68070;50.954;11.060;2023-05-10T20:39:54;2.90;;;1.90;;
78750;SDS011;68070;50.954;11.060;2023-05-10T20:42:39;2.10;;;1.80;;
78750;SDS011;68070;50.954;11.060;2023-05-10T20:45:24;2.80;;;2.00;;
78750;SDS011;68070;50.954;11.060;2023-05-10T20:48:08;3.00;;;2.10;;
78750;SDS011;68070;50.954;11.060;2023-05-10T20:50:53;2.40;;;1.90;;
78750;SDS011;68070;50.954;11.060;2023-05-10T20:53:37;2.50;;;1.80;;
78750;SDS011;68070;50.954;11.060;2023-05-10T20:56:21;1.60;;;1.30;;
78750;SDS011;68070;50.954;11.060;2023-05-10T20:59:06;4.00;;;1.80;;
78750;SDS011;68070;50.954;11.060;2023-05-10T21:01:50;2.50;;;1.80;;
78750;SDS011;68070;50.954;11.060;2023-05-10T21:04:34;3.30;;;1.70;;
78750;SDS011;68070;50.954;11.060;2023-05-10T21:07:19;3.20;;;2.00;;
78750;SDS011;68070;50.954;11.060;2023-05-10T21:10:04;3.40;;;1.50;;
78750;SDS011;68070;50.954;11.060;2023-05-10T21:12:50;2.30;;;1.40;;
78750;SDS011;68070;50.954;11.060;2023-05-10T21:15:35;3.90;;;1.90;;
78750;SDS011;68070;50.954;11.060;2023-05-10T21:18:19;4.90;;;2.20;;
78750;SDS011;68070;50.954;11.060;2023-05-10T21:21:03;3.40;;;2.00;;
78750;SDS011;68070;50.954;11.060;2023-05-10T21:23:48;3.90;;;2.30;;
78750;SDS011;68070;50.954;11.060;2023-05-10T21:26:32;4.90;;;2.10;;
78750;SDS011;68070;50.954;11.060;2023-05-10T21:29:17;2.60;;;1.80;;
78750;SDS011;68070;50.954;11.060;2023-05-10T21:32:01;4.40;;;2.40;;
78750;SDS011;68070;50.954;11.060;2023-05-10T21:34:45;4.20;;;2.30;;
78750;SDS011;68070;50.954;11.060;2023-05-10T21:37:30;6.50;;;2.40;;
78750;SDS011;68070;50.954;11.060;2023-05-10T21:40:14;4.30;;;2.30;;
78750;SDS011;68070;50.954;11.060;2023-05-10T21:42:59;3.80;;;2.10;;
78750;SDS011;68070;50.954;11.060;2023-05-10T21:45:43;3.00;;;2.10;;
78750;SDS011;68070;50.954;11.060;2023-05-10T21:48:27;4.80;;;2.50;;
78750;SDS011;68070;50.954;11.060;2023-05-10T21:51:12;2.80;;;2.20;;
78750;SDS011;68070;50.954;11.060;2023-05-10T21:53:56;2.50;;;2.10;;
78750;SDS011;68070;50.954;11.060;2023-05-10T21:56:41;2.10;;;1.60;;
78750;SDS011;68070;50.954;11.060;2023-05-10T21:59:25;3.00;;;1.90;;
78750;SDS011;68070;50.954;11.060;2023-05-10T22:02:09;3.20;;;1.90;;
78750;SDS011;68070;50.954;11.060;2023-05-10T22:04:54;3.80;;;2.00;;
78750;SDS011;68070;50.954;11.060;2023-05-10T22:07:39;2.70;;;1.80;;
78750;SDS011;68070;50.954;11.060;2023-05-10T22:10:23;5.10;;;2.10;;
78750;SDS011;68070;50.954;11.060;2023-05-10T22:13:07;2.90;;;2.20;;
78750;SDS011;68070;50.954;11.060;2023-05-10T22:15:52;3.20;;;2.40;;
78750;SDS011;68070;50.954;11.060;2023-05-10T22:18:36;2.80;;;2.10;;
78750;SDS011;68070;50.954;11.060;2023-05-10T22:21:21;2.50;;;1.70;;
78750;SDS011;68070;50.954;11.060;2023-05-10T22:24:05;4.00;;;2.20;;
78750;SDS011;68070;50.954;11.060;2023-05-10T22:26:52;2.80;;;1.60;;
78750;SDS011;68070;50.954;11.060;2023-05-10T22:29:37;2.80;;;1.70;;
78750;SDS011;68070;50.954;11.060;2023-05-10T22:32:21;2.80;;;1.90;;
78750;SDS011;68070;50.954;11.060;2023-05-10T22:35:06;3.50;;;1.80;;
78750;SDS011;68070;50.954;11.060;2023-05-10T22:37:51;4.20;;;2.80;;
78750;SDS011;68070;50.954;11.060;2023-05-10T22:40:35;4.00;;;2.10;;
78750;SDS011;68070;50.954;11.060;2023-05-10T22:43:20;2.60;;;1.80;;
78750;SDS011;68070;50.954;11.060;2023-05-10T22:46:04;2.50;;;1.90;;
78750;SDS011;68070;50.954;11.060;2023-05-10T22:48:48;2.80;;;1.70;;
78750;SDS011;68070;50.954;11.060;2023-05-10T22:51:33;3.00;;;2.00;;
78750;SDS011;68070;50.954;11.060;2023-05-10T22:54:17;2.30;;;1.70;;
78750;SDS011;68070;50.954;11.060;2023-05-10T22:57:01;3.10;;;2.10;;
78750;SDS011;68070;50.954;11.060;2023-05-10T22:59:46;3.00;;;1.90;;
78750;SDS011;68070;50.954;11.060;2023-05-10T23:02:31;2.20;;;1.70;;
78750;SDS011;68070;50.954;11.060;2023-05-10T23:05:17;2.00;;;1.50;;
78750;SDS011;68070;50.954;11.060;2023-05-10T23:08:02;2.50;;;1.60;;
78750;SDS011;68070;50.954;11.060;2023-05-10T23:10:46;3.90;;;2.10;;
78750;SDS011;68070;50.954;11.060;2023-05-10T23:13:31;3.60;;;2.10;;
78750;SDS011;68070;50.954;11.060;2023-05-10T23:16:15;3.10;;;1.70;;
78750;SDS011;68070;50.954;11.060;2023-05-10T23:18:59;3.90;;;1.80;;
78750;SDS011;68070;50.954;11.060;2023-05-10T23:21:44;3.20;;;2.10;;
78750;SDS011;68070;50.954;11.060;2023-05-10T23:24:28;2.80;;;1.80;;
78750;SDS011;68070;50.954;11.060;2023-05-10T23:27:13;3.10;;;2.00;;
78750;SDS011;68070;50.954;11.060;2023-05-10T23:29:57;1.90;;;1.70;;
78750;SDS011;68070;50.954;11.060;2023-05-10T23:32:42;2.60;;;1.40;;
78750;SDS011;68070;50.954;11.060;2023-05-10T23:35:26;2.70;;;1.80;;
78750;SDS011;68070;50.954;11.060;2023-05-10T23:38:11;2.70;;;1.80;;
78750;SDS011;68070;50.954;11.060;2023-05-10T23:40:55;2.80;;;2.20;;
78750;SDS011;68070;50.954;11.060;2023-05-10T23:43:40;2.40;;;1.90;;
78750;SDS011;68070;50.954;11.060;2023-05-10T23:46:24;2.40;;;1.90;;
78750;SDS011;68070;50.954;11.060;2023-05-10T23:49:09;2.80;;;2.40;;
78750;SDS011;68070;50.954;11.060;2023-05-10T23:51:53;5.40;;;1.80;;
78750;SDS011;68070;50.954;11.060;2023-05-10T23:54:37;2.30;;;1.80;;
78750;SDS011;68070;50.954;11.060;2023-05-10T23:57:22;2.60;;;2.10;;
